Aérodrome :
LOGIN :

S'inscrire | Disclaimer

   EN    FR    IT 

 










Légende :    VFR   VFR Marginal   IFR   IFR Intensif   IFR Très Intensif
Visi : 
Plafond : 
>= 8 km
>= 3000ft
5 à 8 km
1000 à 3000 ft
1500m à 5 km
500 à 1000 ft
800 à 1500m
200 à 500 ft
< 800m
< 200 ft
Symboles :   Orages  Brouillard  Fortes neiges  Fortes précipitations  Vent > 20 kt
SIGMETs :   Divers  Orages  Givrage  Turbulence  Onde Orograph.  Cendres Volcan.







- Altitude de l'aérodrome : 106 ft
- Code IATA : NRN


EDLV - Weeze

DERNIER METAR :
  • 301220Z 12015G25KT 080V160 CAVOK 18/00 Q1009

METARs EXPIRÉS :
  • 301150Z 13014KT 100V170 CAVOK 17/00 Q1009
  • 301120Z 12016KT 080V160 CAVOK 17/01 Q1010
  • 301050Z 14018KT 100V160 CAVOK 17/00 Q1010
  • 301020Z 13018KT CAVOK 16/01 Q1011
  • 300950Z 12014KT 100V160 CAVOK 16/02 Q1011

TAF TAF EDLV
Valide du 30 à 12h jusqu'au 01 à 12h UTC


301100Z 3012/0112 13015G25KT CAVOK
TEMPO 3012/3014 16020G30KT
BECMG 3016/3019 10007KT
BECMG 0103/0105 17006KT
Pas de NOTAMs connus pour ce terrain.



MET'MAP, la Météo Aéronautique d'un coup d'oeil ! - Copyright ORBIFLY Décembre 2007 - Disclaimer

ORBIFLY MET'MAP TEAM :

Programmation & Développement : Alexandra Zaïnal
Conception & Développement : Baudouin d'Aumeries
Co-Programmation & Développement : Marc-Olivier Méhu
Soutien technique & logistique : Manuel Goepfert

Contact : metmap@orbifly.com




SOURCES & CREDITS :

   NOAA